createdAt,value
2019-02-23T00:01:41.647Z,93.31
2019-02-23T00:06:45.674Z,91.85
2019-02-23T00:11:49.869Z,91.37
2019-02-23T00:16:54.033Z,91.03
2019-02-23T00:21:58.048Z,90.96
2019-02-23T00:27:02.122Z,90.31
2019-02-23T00:32:06.221Z,90.12
2019-02-23T00:37:13.216Z,90.01
2019-02-23T00:42:17.337Z,90.31
2019-02-23T00:47:21.360Z,90.74
2019-02-23T00:52:25.588Z,90.71
2019-02-23T00:57:29.553Z,91.00
2019-02-23T01:02:34.465Z,91.08
2019-02-23T01:07:38.478Z,91.15
2019-02-23T01:12:42.363Z,91.24
2019-02-23T01:17:46.432Z,91.08
2019-02-23T01:22:50.768Z,91.26
2019-02-23T01:27:54.677Z,91.49
2019-02-23T01:32:58.818Z,91.95
2019-02-23T01:38:02.994Z,92.45
2019-02-23T01:43:07.280Z,92.79
2019-02-23T01:48:11.561Z,93.04
2019-02-23T01:53:16.110Z,92.95
2019-02-23T01:58:20.144Z,93.02
2019-02-23T02:03:25.043Z,92.67
2019-02-23T02:08:29.287Z,92.84
2019-02-23T02:13:33.458Z,92.41
2019-02-23T02:18:37.587Z,91.59
2019-02-23T02:23:41.714Z,91.07
2019-02-23T02:28:45.738Z,90.06
2019-02-23T02:34:03.108Z,89.53
2019-02-23T02:39:10.903Z,89.41
2019-02-23T02:44:15.016Z,89.50
2019-02-23T02:49:18.980Z,89.59
2019-02-23T02:54:23.068Z,88.77
2019-02-23T02:59:27.094Z,88.44
2019-02-23T03:04:32.010Z,87.96
2019-02-23T03:09:35.983Z,87.73
2019-02-23T03:14:39.993Z,87.89
2019-02-23T03:19:43.964Z,88.35
2019-02-23T03:24:47.998Z,88.63
2019-02-23T03:29:52.023Z,88.66
2019-02-23T03:34:55.994Z,89.02
2019-02-23T03:40:00.095Z,88.65
2019-02-23T03:45:04.678Z,88.81
2019-02-23T03:50:08.889Z,88.99
2019-02-23T03:55:12.817Z,89.27
2019-02-23T04:00:16.937Z,89.21
2019-02-23T04:05:22.032Z,89.15
2019-02-23T04:10:26.119Z,89.15
2019-02-23T04:15:30.248Z,89.44
2019-02-23T04:20:34.471Z,89.49
2019-02-23T04:25:38.629Z,89.29
2019-02-23T04:30:42.628Z,88.92
2019-02-23T04:35:46.752Z,88.35
2019-02-23T04:40:50.923Z,88.17
2019-02-23T04:45:55.013Z,87.90
2019-02-23T04:50:59.137Z,87.47
2019-02-23T04:56:03.057Z,87.56
2019-02-23T05:01:07.137Z,88.13
2019-02-23T05:06:11.352Z,88.64
2019-02-23T05:11:15.314Z,89.53
2019-02-23T05:16:19.388Z,90.87
2019-02-23T05:21:26.792Z,91.59
2019-02-23T05:26:29.262Z,92.24
2019-02-23T05:31:33.282Z,92.94
2019-02-23T05:36:37.267Z,93.21
2019-02-23T05:41:41.247Z,92.68
2019-02-23T05:46:45.362Z,92.95
2019-02-23T05:51:49.302Z,93.12
2019-02-23T05:56:53.457Z,93.07
2019-02-23T06:01:57.454Z,92.87
2019-02-23T06:07:02.498Z,92.83
2019-02-23T06:12:06.616Z,92.48
2019-02-23T06:17:10.819Z,92.37
2019-02-23T06:22:15.025Z,92.33
2019-02-23T06:27:19.202Z,92.35
2019-02-23T06:32:23.339Z,92.56
2019-02-23T06:37:27.361Z,92.58
2019-02-23T06:42:31.321Z,92.22
2019-02-23T06:47:35.427Z,92.35
2019-02-23T06:52:39.431Z,92.39
2019-02-23T06:57:43.463Z,92.43
2019-02-23T07:02:47.494Z,92.27
2019-02-23T07:07:51.719Z,92.13
2019-02-23T07:12:55.857Z,92.52
2019-02-23T07:18:00.277Z,92.42
2019-02-23T07:23:04.348Z,92.17
2019-02-23T07:28:10.884Z,92.24
2019-02-23T07:33:14.402Z,92.26
2019-02-23T07:38:18.536Z,92.07
2019-02-23T07:43:22.659Z,91.98
2019-02-23T07:48:26.606Z,92.24
2019-02-23T07:53:30.641Z,92.44
2019-02-23T07:58:34.730Z,92.51
2019-02-23T08:03:38.857Z,92.87
2019-02-23T08:08:43.916Z,92.42
2019-02-23T08:13:48.024Z,92.13
2019-02-23T08:18:51.962Z,91.82
2019-02-23T08:23:55.988Z,91.21
2019-02-23T08:29:00.133Z,91.02
2019-02-23T08:34:04.241Z,91.20
2019-02-23T08:39:08.376Z,90.98
2019-02-23T08:44:12.497Z,91.11
2019-02-23T08:49:16.570Z,91.39
2019-02-23T08:54:20.652Z,91.49
2019-02-23T08:59:24.676Z,92.37
2019-02-23T09:04:28.811Z,92.30
2019-02-23T09:09:33.906Z,91.98
2019-02-23T09:14:38.287Z,91.78
2019-02-23T09:19:42.518Z,91.01
2019-02-23T09:24:46.551Z,89.75
2019-02-23T09:29:50.690Z,89.04
2019-02-23T09:34:54.598Z,88.10
2019-02-23T09:39:59.136Z,88.02
2019-02-23T09:45:03.467Z,86.65
2019-02-23T09:50:08.208Z,87.65
2019-02-23T09:55:13.033Z,88.98
2019-02-23T10:00:17.286Z,90.29
2019-02-23T10:05:21.526Z,90.29
2019-02-23T10:10:25.817Z,90.34
2019-02-23T10:15:29.867Z,90.79
2019-02-23T10:20:33.950Z,90.42
2019-02-23T10:25:38.134Z,90.42
2019-02-23T10:30:43.386Z,90.28
2019-02-23T10:35:47.617Z,89.83
2019-02-23T10:40:51.664Z,90.11
2019-02-23T10:45:55.671Z,89.09
2019-02-23T10:50:59.687Z,88.70
2019-02-23T10:56:03.711Z,88.90
2019-02-23T11:01:07.628Z,88.97
2019-02-23T11:06:11.818Z,88.49
2019-02-23T11:11:16.247Z,88.49
2019-02-23T11:16:20.532Z,87.90
2019-02-23T11:21:24.767Z,88.57
2019-02-23T11:26:29.049Z,87.73
2019-02-23T11:31:33.226Z,87.91
2019-02-23T11:36:37.347Z,86.50
2019-02-23T11:41:41.499Z,86.75
2019-02-23T11:46:59.842Z,86.12
2019-02-23T11:51:51.279Z,85.91
2019-02-23T11:56:55.463Z,87.09
2019-02-23T12:01:59.527Z,86.76
2019-02-23T12:07:03.758Z,87.28
2019-02-23T12:12:07.934Z,88.95
2019-02-23T12:17:11.940Z,89.75
2019-02-23T12:22:18.501Z,91.12
2019-02-23T12:27:22.411Z,92.02
2019-02-23T12:32:26.542Z,93.24
2019-02-23T12:37:30.613Z,93.33
2019-02-23T12:42:35.013Z,93.57
2019-02-23T12:47:38.990Z,92.60
2019-02-23T12:52:43.345Z,91.72
2019-02-23T12:57:47.365Z,92.77
2019-02-23T13:02:51.932Z,92.60
2019-02-23T13:07:55.891Z,91.57
2019-02-23T13:13:16.937Z,90.77
2019-02-23T13:18:38.046Z,90.60
2019-02-23T13:24:03.027Z,91.61
2019-02-23T13:29:16.416Z,91.54
2019-02-23T13:34:48.132Z,91.93
2019-02-23T13:40:11.001Z,92.24
2019-02-23T13:45:30.647Z,92.65
2019-02-23T13:50:42.969Z,93.87
2019-02-23T13:56:03.902Z,94.68
2019-02-23T14:01:22.356Z,95.27
2019-02-23T14:06:34.029Z,95.94
2019-02-23T14:11:53.495Z,96.57
2019-02-23T14:17:09.396Z,97.84
2019-02-23T14:22:27.244Z,98.43
2019-02-23T14:27:53.193Z,98.43
2019-02-23T14:33:15.701Z,98.68
2019-02-23T14:38:33.795Z,99.01
2019-02-23T14:43:50.786Z,99.25
2019-02-23T14:49:10.848Z,99.50
2019-02-23T14:54:21.867Z,99.78
2019-02-23T14:59:52.347Z,99.95
2019-02-23T15:05:12.458Z,99.74
2019-02-23T15:10:31.133Z,99.81
2019-02-23T15:15:53.081Z,99.83
2019-02-23T15:21:19.941Z,99.99
2019-02-23T15:26:37.219Z,99.77
2019-02-23T15:32:00.153Z,99.63
2019-02-23T15:37:17.631Z,99.78
2019-02-23T15:42:34.104Z,99.51
2019-02-23T15:47:49.862Z,98.93
2019-02-23T15:52:54.011Z,98.10
2019-02-23T15:57:57.978Z,97.88
2019-02-23T16:03:02.142Z,98.13
2019-02-23T16:08:06.062Z,97.42
2019-02-23T16:13:10.334Z,97.27
2019-02-23T16:18:14.478Z,97.10
2019-02-23T16:23:18.947Z,97.35
2019-02-23T16:28:23.186Z,96.95
2019-02-23T16:33:27.419Z,96.48
2019-02-23T16:38:31.534Z,97.58
2019-02-23T16:43:35.691Z,97.19
2019-02-23T16:48:39.667Z,97.71
2019-02-23T16:53:43.667Z,98.21
2019-02-23T16:58:48.007Z,98.27
2019-02-23T17:03:52.130Z,97.86
2019-02-23T17:08:56.316Z,97.86
2019-02-23T17:14:00.338Z,98.49
2019-02-23T17:24:22.586Z,98.78
2019-02-23T17:29:26.815Z,98.96
2019-02-23T17:34:30.817Z,98.96
2019-02-23T17:39:35.012Z,98.90
2019-02-23T17:44:39.084Z,99.18
2019-02-23T17:49:43.105Z,99.01
2019-02-23T17:54:47.339Z,98.72
2019-02-23T17:59:51.931Z,98.40
2019-02-23T18:04:56.217Z,98.08
2019-02-23T18:10:00.392Z,98.08
2019-02-23T18:15:04.886Z,97.78
2019-02-23T18:20:10.284Z,98.09
2019-02-23T18:25:14.777Z,98.01
2019-02-23T18:30:18.998Z,97.86
2019-02-23T18:35:23.172Z,97.63
2019-02-23T18:40:27.211Z,97.53
2019-02-23T18:45:31.312Z,97.28
2019-02-23T18:50:35.351Z,98.31
2019-02-23T18:55:41.325Z,98.31
2019-02-23T19:00:45.233Z,99.58
2019-02-23T19:05:50.157Z,99.36
2019-02-23T19:10:55.805Z,99.43
2019-02-23T19:16:02.140Z,98.95
2019-02-23T19:21:06.057Z,98.59
2019-02-23T19:26:10.138Z,98.45
2019-02-23T19:31:14.146Z,98.73
2019-02-23T19:36:18.230Z,99.17
2019-02-23T19:41:22.255Z,99.86
2019-02-23T19:46:26.690Z,99.93
2019-02-23T19:51:30.982Z,100.00
2019-02-23T19:56:35.105Z,99.57
2019-02-23T20:01:39.438Z,100.00
2019-02-23T20:06:43.671Z,100.00
2019-02-23T20:11:48.747Z,99.95
2019-02-23T20:16:54.857Z,99.43
2019-02-23T20:21:58.923Z,99.43
2019-02-23T20:27:03.374Z,99.57
2019-02-23T20:32:07.442Z,99.49
2019-02-23T20:37:11.508Z,99.85
2019-02-23T20:42:15.588Z,99.85
2019-02-23T20:47:22.793Z,100.00
2019-02-23T20:52:27.124Z,100.00
2019-02-23T20:57:31.513Z,100.00
2019-02-23T21:02:35.683Z,100.00
2019-02-23T21:07:39.912Z,100.00
2019-02-23T21:12:43.868Z,100.00
2019-02-23T21:17:47.814Z,100.00
2019-02-23T21:22:52.024Z,100.00
2019-02-23T21:27:56.118Z,100.00
2019-02-23T21:33:00.062Z,100.00
2019-02-23T21:38:04.105Z,100.00
2019-02-23T21:43:08.198Z,100.00
2019-02-23T21:48:12.473Z,100.00
2019-02-23T21:53:17.612Z,100.00
2019-02-23T21:58:21.756Z,100.00
2019-02-23T22:03:25.942Z,100.00
2019-02-23T22:08:29.968Z,100.00
2019-02-23T22:13:34.262Z,100.00
2019-02-23T22:18:38.355Z,100.00
2019-02-23T22:23:42.554Z,100.00
2019-02-23T22:28:46.660Z,100.00
2019-02-23T22:33:50.698Z,100.00
2019-02-23T22:38:54.824Z,100.00
2019-02-23T22:44:00.061Z,100.00
2019-02-23T22:49:04.319Z,100.00
2019-02-23T22:54:08.320Z,100.00
2019-02-23T22:59:12.253Z,100.00
2019-02-23T23:04:16.288Z,100.00
2019-02-23T23:09:20.438Z,100.00
2019-02-23T23:14:24.489Z,100.00
2019-02-23T23:19:28.722Z,100.00
2019-02-23T23:24:32.808Z,100.00
2019-02-23T23:29:37.274Z,100.00
2019-02-23T23:34:41.409Z,100.00
2019-02-23T23:39:45.592Z,100.00
2019-02-23T23:44:49.718Z,100.00
2019-02-23T23:49:53.742Z,100.00
2019-02-23T23:54:57.772Z,100.00
